sensor_id;sensor_type;location;lat;lon;timestamp;P1;durP1;ratioP1;P2;durP2;ratioP2
19189;SDS011;9727;50.200;19.038;2022-10-16T00:02:08;22.07;;;13.50;;
19189;SDS011;9727;50.200;19.038;2022-10-16T00:04:36;20.20;;;13.73;;
19189;SDS011;9727;50.200;19.038;2022-10-16T00:07:03;22.60;;;14.77;;
19189;SDS011;9727;50.200;19.038;2022-10-16T00:09:29;24.43;;;14.50;;
19189;SDS011;9727;50.200;19.038;2022-10-16T00:11:57;23.03;;;14.40;;
19189;SDS011;9727;50.200;19.038;2022-10-16T00:14:25;21.17;;;14.47;;
19189;SDS011;9727;50.200;19.038;2022-10-16T00:16:51;23.07;;;14.30;;
19189;SDS011;9727;50.200;19.038;2022-10-16T00:19:18;22.20;;;15.37;;
19189;SDS011;9727;50.200;19.038;2022-10-16T00:21:46;22.37;;;15.13;;
19189;SDS011;9727;50.200;19.038;2022-10-16T00:24:12;22.17;;;15.40;;
19189;SDS011;9727;50.200;19.038;2022-10-16T00:26:39;27.73;;;15.70;;
19189;SDS011;9727;50.200;19.038;2022-10-16T00:29:06;21.60;;;14.07;;
19189;SDS011;9727;50.200;19.038;2022-10-16T00:31:33;21.87;;;14.37;;
19189;SDS011;9727;50.200;19.038;2022-10-16T00:33:59;19.87;;;13.60;;
19189;SDS011;9727;50.200;19.038;2022-10-16T00:36:26;22.87;;;15.17;;
19189;SDS011;9727;50.200;19.038;2022-10-16T00:39:02;22.67;;;14.77;;
19189;SDS011;9727;50.200;19.038;2022-10-16T00:41:29;23.87;;;14.87;;
19189;SDS011;9727;50.200;19.038;2022-10-16T00:43:56;20.80;;;14.37;;
19189;SDS011;9727;50.200;19.038;2022-10-16T00:46:26;21.23;;;14.50;;
19189;SDS011;9727;50.200;19.038;2022-10-16T00:48:56;20.87;;;14.13;;
19189;SDS011;9727;50.200;19.038;2022-10-16T00:51:25;21.03;;;14.47;;
19189;SDS011;9727;50.200;19.038;2022-10-16T00:53:52;19.70;;;14.03;;
19189;SDS011;9727;50.200;19.038;2022-10-16T00:56:20;22.77;;;14.33;;
19189;SDS011;9727;50.200;19.038;2022-10-16T00:58:47;26.67;;;13.80;;
19189;SDS011;9727;50.200;19.038;2022-10-16T01:01:14;23.87;;;13.80;;
19189;SDS011;9727;50.200;19.038;2022-10-16T01:03:40;21.17;;;14.23;;
19189;SDS011;9727;50.200;19.038;2022-10-16T01:06:14;21.00;;;13.90;;
19189;SDS011;9727;50.200;19.038;2022-10-16T01:08:44;21.23;;;14.03;;
19189;SDS011;9727;50.200;19.038;2022-10-16T01:11:17;23.73;;;13.70;;
19189;SDS011;9727;50.200;19.038;2022-10-16T01:13:48;23.33;;;14.47;;
19189;SDS011;9727;50.200;19.038;2022-10-16T01:16:18;20.77;;;14.57;;
19189;SDS011;9727;50.200;19.038;2022-10-16T01:18:46;21.87;;;14.37;;
19189;SDS011;9727;50.200;19.038;2022-10-16T01:21:15;24.37;;;14.30;;
19189;SDS011;9727;50.200;19.038;2022-10-16T01:23:45;19.17;;;13.83;;
19189;SDS011;9727;50.200;19.038;2022-10-16T01:26:19;21.70;;;14.87;;
19189;SDS011;9727;50.200;19.038;2022-10-16T01:28:50;22.03;;;13.77;;
19189;SDS011;9727;50.200;19.038;2022-10-16T01:31:18;23.93;;;14.47;;
19189;SDS011;9727;50.200;19.038;2022-10-16T01:33:46;21.43;;;14.80;;
19189;SDS011;9727;50.200;19.038;2022-10-16T01:36:14;26.13;;;15.13;;
19189;SDS011;9727;50.200;19.038;2022-10-16T01:38:42;21.93;;;15.77;;
19189;SDS011;9727;50.200;19.038;2022-10-16T01:41:11;31.53;;;17.10;;
19189;SDS011;9727;50.200;19.038;2022-10-16T01:43:40;21.53;;;16.23;;
19189;SDS011;9727;50.200;19.038;2022-10-16T01:46:10;21.10;;;15.77;;
19189;SDS011;9727;50.200;19.038;2022-10-16T01:48:36;24.27;;;16.50;;
19189;SDS011;9727;50.200;19.038;2022-10-16T01:51:05;28.43;;;18.03;;
19189;SDS011;9727;50.200;19.038;2022-10-16T01:53:33;23.33;;;16.10;;
19189;SDS011;9727;50.200;19.038;2022-10-16T01:56:00;25.47;;;15.67;;
19189;SDS011;9727;50.200;19.038;2022-10-16T01:58:28;22.13;;;15.60;;
19189;SDS011;9727;50.200;19.038;2022-10-16T02:00:59;21.50;;;14.93;;
19189;SDS011;9727;50.200;19.038;2022-10-16T02:03:29;22.80;;;14.53;;
19189;SDS011;9727;50.200;19.038;2022-10-16T02:05:56;22.87;;;14.67;;
19189;SDS011;9727;50.200;19.038;2022-10-16T02:08:26;20.57;;;14.33;;
19189;SDS011;9727;50.200;19.038;2022-10-16T02:10:54;23.07;;;13.80;;
19189;SDS011;9727;50.200;19.038;2022-10-16T02:13:23;20.73;;;14.33;;
19189;SDS011;9727;50.200;19.038;2022-10-16T02:15:52;21.17;;;13.57;;
19189;SDS011;9727;50.200;19.038;2022-10-16T02:18:18;18.43;;;13.50;;
19189;SDS011;9727;50.200;19.038;2022-10-16T02:20:48;19.37;;;13.17;;
19189;SDS011;9727;50.200;19.038;2022-10-16T02:23:18;21.53;;;13.33;;
19189;SDS011;9727;50.200;19.038;2022-10-16T02:25:45;19.87;;;13.30;;
19189;SDS011;9727;50.200;19.038;2022-10-16T02:28:13;19.43;;;13.37;;
19189;SDS011;9727;50.200;19.038;2022-10-16T02:30:43;16.37;;;12.30;;
19189;SDS011;9727;50.200;19.038;2022-10-16T02:33:12;19.67;;;12.73;;
19189;SDS011;9727;50.200;19.038;2022-10-16T02:35:40;21.93;;;13.23;;
19189;SDS011;9727;50.200;19.038;2022-10-16T02:38:08;18.30;;;13.30;;
19189;SDS011;9727;50.200;19.038;2022-10-16T02:40:35;20.53;;;13.73;;
19189;SDS011;9727;50.200;19.038;2022-10-16T02:43:03;19.53;;;12.73;;
19189;SDS011;9727;50.200;19.038;2022-10-16T02:45:29;17.20;;;12.67;;
19189;SDS011;9727;50.200;19.038;2022-10-16T02:47:59;23.23;;;13.13;;
19189;SDS011;9727;50.200;19.038;2022-10-16T02:50:25;19.30;;;13.20;;
19189;SDS011;9727;50.200;19.038;2022-10-16T02:52:52;18.53;;;13.37;;
19189;SDS011;9727;50.200;19.038;2022-10-16T02:55:20;20.47;;;13.37;;
19189;SDS011;9727;50.200;19.038;2022-10-16T02:57:46;18.30;;;12.67;;
19189;SDS011;9727;50.200;19.038;2022-10-16T03:00:14;18.60;;;13.20;;
19189;SDS011;9727;50.200;19.038;2022-10-16T03:02:41;19.63;;;13.60;;
19189;SDS011;9727;50.200;19.038;2022-10-16T03:05:08;20.00;;;13.13;;
19189;SDS011;9727;50.200;19.038;2022-10-16T03:07:35;21.77;;;14.27;;
19189;SDS011;9727;50.200;19.038;2022-10-16T03:10:01;19.33;;;13.70;;
19189;SDS011;9727;50.200;19.038;2022-10-16T03:12:29;21.57;;;13.73;;
19189;SDS011;9727;50.200;19.038;2022-10-16T03:14:59;23.63;;;13.30;;
19189;SDS011;9727;50.200;19.038;2022-10-16T03:17:26;20.77;;;13.13;;
19189;SDS011;9727;50.200;19.038;2022-10-16T03:19:52;19.83;;;13.87;;
19189;SDS011;9727;50.200;19.038;2022-10-16T03:22:19;19.17;;;12.73;;
19189;SDS011;9727;50.200;19.038;2022-10-16T03:24:45;18.93;;;13.60;;
19189;SDS011;9727;50.200;19.038;2022-10-16T03:27:12;17.53;;;13.23;;
19189;SDS011;9727;50.200;19.038;2022-10-16T03:29:40;23.23;;;13.30;;
19189;SDS011;9727;50.200;19.038;2022-10-16T03:32:06;21.47;;;13.17;;
19189;SDS011;9727;50.200;19.038;2022-10-16T03:34:33;21.83;;;14.43;;
19189;SDS011;9727;50.200;19.038;2022-10-16T03:36:59;19.57;;;12.87;;
19189;SDS011;9727;50.200;19.038;2022-10-16T03:39:26;20.67;;;14.40;;
19189;SDS011;9727;50.200;19.038;2022-10-16T03:41:53;21.13;;;13.60;;
19189;SDS011;9727;50.200;19.038;2022-10-16T03:44:19;19.20;;;14.60;;
19189;SDS011;9727;50.200;19.038;2022-10-16T03:46:47;19.53;;;14.73;;
19189;SDS011;9727;50.200;19.038;2022-10-16T03:49:14;22.23;;;15.07;;
19189;SDS011;9727;50.200;19.038;2022-10-16T03:51:40;22.10;;;14.73;;
19189;SDS011;9727;50.200;19.038;2022-10-16T03:54:10;19.07;;;14.43;;
19189;SDS011;9727;50.200;19.038;2022-10-16T03:56:37;24.33;;;14.87;;
19189;SDS011;9727;50.200;19.038;2022-10-16T03:59:03;19.37;;;14.37;;
19189;SDS011;9727;50.200;19.038;2022-10-16T04:01:30;18.90;;;14.17;;
19189;SDS011;9727;50.200;19.038;2022-10-16T04:03:59;18.23;;;13.67;;
19189;SDS011;9727;50.200;19.038;2022-10-16T04:06:25;20.57;;;13.67;;
19189;SDS011;9727;50.200;19.038;2022-10-16T04:08:52;19.10;;;13.87;;
19189;SDS011;9727;50.200;19.038;2022-10-16T04:11:18;22.40;;;14.43;;
19189;SDS011;9727;50.200;19.038;2022-10-16T04:13:45;21.77;;;14.60;;
19189;SDS011;9727;50.200;19.038;2022-10-16T04:16:11;18.33;;;14.07;;
19189;SDS011;9727;50.200;19.038;2022-10-16T04:18:38;21.30;;;13.70;;
19189;SDS011;9727;50.200;19.038;2022-10-16T04:21:06;20.23;;;14.50;;
19189;SDS011;9727;50.200;19.038;2022-10-16T04:23:33;18.43;;;13.63;;
19189;SDS011;9727;50.200;19.038;2022-10-16T04:25:59;26.70;;;13.93;;
19189;SDS011;9727;50.200;19.038;2022-10-16T04:28:26;22.97;;;12.70;;
19189;SDS011;9727;50.200;19.038;2022-10-16T04:30:53;17.67;;;12.67;;
19189;SDS011;9727;50.200;19.038;2022-10-16T04:33:19;22.10;;;13.70;;
19189;SDS011;9727;50.200;19.038;2022-10-16T04:35:46;17.10;;;13.07;;
19189;SDS011;9727;50.200;19.038;2022-10-16T04:38:14;17.63;;;12.67;;
19189;SDS011;9727;50.200;19.038;2022-10-16T04:40:41;22.27;;;14.17;;
19189;SDS011;9727;50.200;19.038;2022-10-16T04:43:07;21.33;;;13.87;;
19189;SDS011;9727;50.200;19.038;2022-10-16T04:45:34;21.17;;;12.90;;
19189;SDS011;9727;50.200;19.038;2022-10-16T04:48:00;18.47;;;13.67;;
19189;SDS011;9727;50.200;19.038;2022-10-16T04:50:27;18.13;;;12.60;;
19189;SDS011;9727;50.200;19.038;2022-10-16T04:52:53;18.53;;;12.73;;
19189;SDS011;9727;50.200;19.038;2022-10-16T04:55:21;18.40;;;13.23;;
19189;SDS011;9727;50.200;19.038;2022-10-16T04:57:48;21.23;;;12.53;;
19189;SDS011;9727;50.200;19.038;2022-10-16T05:00:14;18.83;;;12.33;;
19189;SDS011;9727;50.200;19.038;2022-10-16T05:02:41;18.63;;;12.57;;
19189;SDS011;9727;50.200;19.038;2022-10-16T05:05:08;19.97;;;12.13;;
19189;SDS011;9727;50.200;19.038;2022-10-16T05:07:34;15.53;;;12.07;;
19189;SDS011;9727;50.200;19.038;2022-10-16T05:10:01;18.67;;;12.30;;
19189;SDS011;9727;50.200;19.038;2022-10-16T05:12:29;18.53;;;12.27;;
19189;SDS011;9727;50.200;19.038;2022-10-16T05:14:56;20.00;;;12.73;;
19189;SDS011;9727;50.200;19.038;2022-10-16T05:17:25;14.90;;;12.10;;
19189;SDS011;9727;50.200;19.038;2022-10-16T05:19:51;20.37;;;12.97;;
19189;SDS011;9727;50.200;19.038;2022-10-16T05:22:18;18.10;;;11.73;;
19189;SDS011;9727;50.200;19.038;2022-10-16T05:24:44;19.03;;;11.93;;
19189;SDS011;9727;50.200;19.038;2022-10-16T05:27:11;17.90;;;12.70;;
19189;SDS011;9727;50.200;19.038;2022-10-16T05:29:45;17.20;;;11.30;;
19189;SDS011;9727;50.200;19.038;2022-10-16T05:32:12;18.50;;;12.00;;
19189;SDS011;9727;50.200;19.038;2022-10-16T05:34:39;17.70;;;12.33;;
19189;SDS011;9727;50.200;19.038;2022-10-16T05:37:06;18.90;;;11.17;;
19189;SDS011;9727;50.200;19.038;2022-10-16T05:39:33;23.07;;;12.47;;
19189;SDS011;9727;50.200;19.038;2022-10-16T05:41:59;20.03;;;12.90;;
19189;SDS011;9727;50.200;19.038;2022-10-16T05:44:26;18.83;;;11.87;;
19189;SDS011;9727;50.200;19.038;2022-10-16T05:46:54;23.70;;;13.23;;
19189;SDS011;9727;50.200;19.038;2022-10-16T05:49:20;15.83;;;12.17;;
19189;SDS011;9727;50.200;19.038;2022-10-16T05:51:47;19.10;;;12.63;;
19189;SDS011;9727;50.200;19.038;2022-10-16T05:54:14;16.90;;;12.60;;
19189;SDS011;9727;50.200;19.038;2022-10-16T05:56:40;17.23;;;12.30;;
19189;SDS011;9727;50.200;19.038;2022-10-16T05:59:07;26.13;;;13.40;;
19189;SDS011;9727;50.200;19.038;2022-10-16T06:01:34;21.67;;;13.17;;
19189;SDS011;9727;50.200;19.038;2022-10-16T06:04:02;17.03;;;13.30;;
19189;SDS011;9727;50.200;19.038;2022-10-16T06:06:29;19.83;;;13.83;;
19189;SDS011;9727;50.200;19.038;2022-10-16T06:08:57;19.47;;;13.67;;
19189;SDS011;9727;50.200;19.038;2022-10-16T06:11:26;18.50;;;12.43;;
19189;SDS011;9727;50.200;19.038;2022-10-16T06:13:53;19.97;;;13.10;;
19189;SDS011;9727;50.200;19.038;2022-10-16T06:16:22;17.60;;;13.03;;
19189;SDS011;9727;50.200;19.038;2022-10-16T06:18:50;17.63;;;13.20;;
19189;SDS011;9727;50.200;19.038;2022-10-16T06:21:18;17.37;;;13.40;;
19189;SDS011;9727;50.200;19.038;2022-10-16T06:23:45;18.33;;;12.80;;
19189;SDS011;9727;50.200;19.038;2022-10-16T06:26:13;16.30;;;12.43;;
19189;SDS011;9727;50.200;19.038;2022-10-16T06:28:40;20.03;;;13.10;;
19189;SDS011;9727;50.200;19.038;2022-10-16T06:31:07;17.83;;;12.43;;
19189;SDS011;9727;50.200;19.038;2022-10-16T06:33:33;15.60;;;12.57;;
19189;SDS011;9727;50.200;19.038;2022-10-16T06:36:01;18.03;;;12.53;;
19189;SDS011;9727;50.200;19.038;2022-10-16T06:38:29;19.60;;;13.83;;
19189;SDS011;9727;50.200;19.038;2022-10-16T06:40:57;19.57;;;13.67;;
19189;SDS011;9727;50.200;19.038;2022-10-16T06:43:24;18.47;;;12.83;;
19189;SDS011;9727;50.200;19.038;2022-10-16T06:45:51;20.07;;;12.27;;
19189;SDS011;9727;50.200;19.038;2022-10-16T06:48:18;17.90;;;13.10;;
19189;SDS011;9727;50.200;19.038;2022-10-16T06:50:54;18.67;;;12.70;;
19189;SDS011;9727;50.200;19.038;2022-10-16T06:53:21;17.07;;;12.93;;
19189;SDS011;9727;50.200;19.038;2022-10-16T06:55:49;20.67;;;13.17;;
19189;SDS011;9727;50.200;19.038;2022-10-16T06:58:15;22.03;;;14.37;;
19189;SDS011;9727;50.200;19.038;2022-10-16T07:00:54;19.90;;;14.37;;
19189;SDS011;9727;50.200;19.038;2022-10-16T07:03:22;18.83;;;13.27;;
19189;SDS011;9727;50.200;19.038;2022-10-16T07:05:49;19.20;;;12.53;;
19189;SDS011;9727;50.200;19.038;2022-10-16T07:08:16;15.87;;;11.90;;
19189;SDS011;9727;50.200;19.038;2022-10-16T07:10:42;16.63;;;11.63;;
19189;SDS011;9727;50.200;19.038;2022-10-16T07:13:10;15.00;;;11.43;;
19189;SDS011;9727;50.200;19.038;2022-10-16T07:15:38;18.20;;;11.20;;
19189;SDS011;9727;50.200;19.038;2022-10-16T07:18:04;15.30;;;10.90;;
19189;SDS011;9727;50.200;19.038;2022-10-16T07:20:31;14.60;;;10.17;;
19189;SDS011;9727;50.200;19.038;2022-10-16T07:22:59;18.00;;;10.60;;
19189;SDS011;9727;50.200;19.038;2022-10-16T07:25:26;14.03;;;9.60;;
19189;SDS011;9727;50.200;19.038;2022-10-16T07:27:52;16.87;;;10.67;;
19189;SDS011;9727;50.200;19.038;2022-10-16T07:30:24;14.77;;;9.70;;
19189;SDS011;9727;50.200;19.038;2022-10-16T07:32:50;13.43;;;10.17;;
19189;SDS011;9727;50.200;19.038;2022-10-16T07:35:17;12.83;;;9.63;;
19189;SDS011;9727;50.200;19.038;2022-10-16T07:37:44;16.37;;;10.20;;
19189;SDS011;9727;50.200;19.038;2022-10-16T07:40:11;15.87;;;10.07;;
19189;SDS011;9727;50.200;19.038;2022-10-16T07:42:38;13.87;;;9.70;;
19189;SDS011;9727;50.200;19.038;2022-10-16T07:45:05;12.03;;;9.20;;
19189;SDS011;9727;50.200;19.038;2022-10-16T07:47:45;20.03;;;10.23;;
19189;SDS011;9727;50.200;19.038;2022-10-16T07:50:11;12.67;;;10.07;;
19189;SDS011;9727;50.200;19.038;2022-10-16T07:52:39;15.77;;;9.63;;
19189;SDS011;9727;50.200;19.038;2022-10-16T07:55:06;15.07;;;10.43;;
19189;SDS011;9727;50.200;19.038;2022-10-16T07:57:33;16.93;;;10.57;;
19189;SDS011;9727;50.200;19.038;2022-10-16T07:59:59;14.10;;;10.03;;
19189;SDS011;9727;50.200;19.038;2022-10-16T08:02:26;14.43;;;10.33;;
19189;SDS011;9727;50.200;19.038;2022-10-16T08:04:54;15.27;;;10.00;;
19189;SDS011;9727;50.200;19.038;2022-10-16T08:07:23;12.67;;;9.77;;
19189;SDS011;9727;50.200;19.038;2022-10-16T08:09:49;14.37;;;10.17;;
19189;SDS011;9727;50.200;19.038;2022-10-16T08:12:16;14.13;;;10.03;;
19189;SDS011;9727;50.200;19.038;2022-10-16T08:14:43;12.77;;;10.20;;
19189;SDS011;9727;50.200;19.038;2022-10-16T08:17:09;16.27;;;10.27;;
19189;SDS011;9727;50.200;19.038;2022-10-16T08:19:39;15.37;;;10.50;;
19189;SDS011;9727;50.200;19.038;2022-10-16T08:22:07;18.13;;;10.27;;
19189;SDS011;9727;50.200;19.038;2022-10-16T08:24:34;13.03;;;9.40;;
19189;SDS011;9727;50.200;19.038;2022-10-16T08:27:02;10.63;;;8.73;;
19189;SDS011;9727;50.200;19.038;2022-10-16T08:29:29;18.97;;;10.10;;
19189;SDS011;9727;50.200;19.038;2022-10-16T08:31:55;13.60;;;9.30;;
19189;SDS011;9727;50.200;19.038;2022-10-16T08:34:33;10.83;;;8.97;;
19189;SDS011;9727;50.200;19.038;2022-10-16T08:37:00;12.53;;;8.87;;
19189;SDS011;9727;50.200;19.038;2022-10-16T08:39:29;11.27;;;9.20;;
19189;SDS011;9727;50.200;19.038;2022-10-16T08:42:00;12.77;;;8.53;;
19189;SDS011;9727;50.200;19.038;2022-10-16T08:44:30;13.90;;;8.83;;
19189;SDS011;9727;50.200;19.038;2022-10-16T08:47:02;13.77;;;8.90;;
19189;SDS011;9727;50.200;19.038;2022-10-16T08:49:34;12.53;;;8.90;;
19189;SDS011;9727;50.200;19.038;2022-10-16T08:52:01;11.77;;;8.70;;
19189;SDS011;9727;50.200;19.038;2022-10-16T08:54:31;13.63;;;8.97;;
19189;SDS011;9727;50.200;19.038;2022-10-16T08:57:00;12.63;;;8.40;;
19189;SDS011;9727;50.200;19.038;2022-10-16T08:59:31;10.13;;;8.00;;
19189;SDS011;9727;50.200;19.038;2022-10-16T09:01:57;10.67;;;8.13;;
19189;SDS011;9727;50.200;19.038;2022-10-16T09:04:32;14.33;;;8.10;;
19189;SDS011;9727;50.200;19.038;2022-10-16T09:07:06;12.70;;;8.10;;
19189;SDS011;9727;50.200;19.038;2022-10-16T09:09:41;10.50;;;8.27;;
19189;SDS011;9727;50.200;19.038;2022-10-16T09:12:12;14.90;;;9.07;;
19189;SDS011;9727;50.200;19.038;2022-10-16T09:14:48;15.03;;;8.60;;
19189;SDS011;9727;50.200;19.038;2022-10-16T09:17:24;9.90;;;7.73;;
19189;SDS011;9727;50.200;19.038;2022-10-16T09:19:54;10.30;;;8.20;;
19189;SDS011;9727;50.200;19.038;2022-10-16T09:22:27;12.47;;;8.43;;
19189;SDS011;9727;50.200;19.038;2022-10-16T09:25:04;13.90;;;8.63;;
19189;SDS011;9727;50.200;19.038;2022-10-16T09:27:36;13.23;;;8.77;;
19189;SDS011;9727;50.200;19.038;2022-10-16T09:30:06;13.47;;;8.60;;
19189;SDS011;9727;50.200;19.038;2022-10-16T09:32:37;11.00;;;8.27;;
19189;SDS011;9727;50.200;19.038;2022-10-16T09:35:09;16.17;;;10.57;;
19189;SDS011;9727;50.200;19.038;2022-10-16T09:37:37;11.63;;;9.10;;
19189;SDS011;9727;50.200;19.038;2022-10-16T09:40:05;16.03;;;8.43;;
19189;SDS011;9727;50.200;19.038;2022-10-16T09:42:34;12.35;;;8.57;;
19189;SDS011;9727;50.200;19.038;2022-10-16T09:45:02;11.37;;;7.67;;
19189;SDS011;9727;50.200;19.038;2022-10-16T09:47:30;15.30;;;8.80;;
19189;SDS011;9727;50.200;19.038;2022-10-16T09:49:57;14.00;;;8.27;;
19189;SDS011;9727;50.200;19.038;2022-10-16T09:52:29;12.45;;;7.63;;
19189;SDS011;9727;50.200;19.038;2022-10-16T09:54:57;9.25;;;7.28;;
19189;SDS011;9727;50.200;19.038;2022-10-16T09:57:36;12.95;;;7.60;;
19189;SDS011;9727;50.200;19.038;2022-10-16T10:00:04;14.13;;;7.78;;
19189;SDS011;9727;50.200;19.038;2022-10-16T10:02:35;13.32;;;8.65;;
19189;SDS011;9727;50.200;19.038;2022-10-16T10:05:03;12.35;;;7.50;;
19189;SDS011;9727;50.200;19.038;2022-10-16T10:07:31;9.15;;;7.68;;
19189;SDS011;9727;50.200;19.038;2022-10-16T10:09:59;14.07;;;7.95;;
19189;SDS011;9727;50.200;19.038;2022-10-16T10:12:27;9.35;;;7.63;;
19189;SDS011;9727;50.200;19.038;2022-10-16T10:14:55;9.48;;;6.97;;
19189;SDS011;9727;50.200;19.038;2022-10-16T10:17:24;9.02;;;7.18;;
19189;SDS011;9727;50.200;19.038;2022-10-16T10:19:52;9.85;;;6.93;;
19189;SDS011;9727;50.200;19.038;2022-10-16T10:22:24;10.40;;;7.50;;
19189;SDS011;9727;50.200;19.038;2022-10-16T10:24:54;8.07;;;7.22;;
19189;SDS011;9727;50.200;19.038;2022-10-16T10:27:24;8.95;;;6.82;;
19189;SDS011;9727;50.200;19.038;2022-10-16T10:30:05;10.85;;;6.93;;
19189;SDS011;9727;50.200;19.038;2022-10-16T10:32:36;11.70;;;7.20;;
19189;SDS011;9727;50.200;19.038;2022-10-16T10:35:12;11.00;;;6.68;;
19189;SDS011;9727;50.200;19.038;2022-10-16T10:37:47;9.80;;;7.05;;
19189;SDS011;9727;50.200;19.038;2022-10-16T10:40:22;10.52;;;6.72;;
19189;SDS011;9727;50.200;19.038;2022-10-16T10:42:51;9.55;;;6.38;;
19189;SDS011;9727;50.200;19.038;2022-10-16T10:45:24;9.02;;;6.75;;
19189;SDS011;9727;50.200;19.038;2022-10-16T10:48:14;9.32;;;6.70;;
19189;SDS011;9727;50.200;19.038;2022-10-16T10:50:45;10.95;;;7.30;;
19189;SDS011;9727;50.200;19.038;2022-10-16T10:53:18;9.35;;;6.63;;
19189;SDS011;9727;50.200;19.038;2022-10-16T10:55:47;9.75;;;6.80;;
19189;SDS011;9727;50.200;19.038;2022-10-16T10:58:24;10.23;;;7.30;;
19189;SDS011;9727;50.200;19.038;2022-10-16T11:00:56;7.57;;;6.47;;
19189;SDS011;9727;50.200;19.038;2022-10-16T11:03:27;10.27;;;7.03;;
19189;SDS011;9727;50.200;19.038;2022-10-16T11:05:59;8.02;;;6.80;;
19189;SDS011;9727;50.200;19.038;2022-10-16T11:08:31;11.77;;;7.15;;
19189;SDS011;9727;50.200;19.038;2022-10-16T11:11:00;12.18;;;7.25;;
19189;SDS011;9727;50.200;19.038;2022-10-16T11:13:30;9.68;;;6.55;;
19189;SDS011;9727;50.200;19.038;2022-10-16T11:16:01;10.52;;;6.80;;
19189;SDS011;9727;50.200;19.038;2022-10-16T11:18:32;11.35;;;7.30;;
19189;SDS011;9727;50.200;19.038;2022-10-16T11:21:02;8.73;;;6.32;;
19189;SDS011;9727;50.200;19.038;2022-10-16T11:23:30;10.32;;;7.05;;
19189;SDS011;9727;50.200;19.038;2022-10-16T11:26:02;8.23;;;6.53;;
19189;SDS011;9727;50.200;19.038;2022-10-16T11:28:32;9.52;;;6.60;;
19189;SDS011;9727;50.200;19.038;2022-10-16T11:31:05;10.30;;;7.03;;
19189;SDS011;9727;50.200;19.038;2022-10-16T11:33:36;9.20;;;6.75;;
19189;SDS011;9727;50.200;19.038;2022-10-16T11:36:06;11.38;;;7.38;;
19189;SDS011;9727;50.200;19.038;2022-10-16T11:38:35;8.35;;;6.90;;
19189;SDS011;9727;50.200;19.038;2022-10-16T11:41:08;13.35;;;9.20;;
19189;SDS011;9727;50.200;19.038;2022-10-16T11:43:37;11.85;;;7.50;;
19189;SDS011;9727;50.200;19.038;2022-10-16T11:46:10;13.75;;;8.85;;
19189;SDS011;9727;50.200;19.038;2022-10-16T11:48:40;11.07;;;8.75;;
19189;SDS011;9727;50.200;19.038;2022-10-16T11:51:09;12.38;;;7.90;;
19189;SDS011;9727;50.200;19.038;2022-10-16T11:53:42;12.35;;;7.32;;
19189;SDS011;9727;50.200;19.038;2022-10-16T11:56:11;11.05;;;6.88;;
19189;SDS011;9727;50.200;19.038;2022-10-16T11:58:40;14.00;;;7.50;;
19189;SDS011;9727;50.200;19.038;2022-10-16T12:01:15;10.35;;;7.13;;
19189;SDS011;9727;50.200;19.038;2022-10-16T12:03:43;18.00;;;7.70;;
19189;SDS011;9727;50.200;19.038;2022-10-16T12:06:14;9.18;;;6.97;;
19189;SDS011;9727;50.200;19.038;2022-10-16T12:08:46;10.07;;;7.47;;
19189;SDS011;9727;50.200;19.038;2022-10-16T12:11:23;11.07;;;7.25;;
19189;SDS011;9727;50.200;19.038;2022-10-16T12:13:51;12.75;;;7.70;;
19189;SDS011;9727;50.200;19.038;2022-10-16T12:16:23;11.60;;;7.80;;
19189;SDS011;9727;50.200;19.038;2022-10-16T12:18:49;11.77;;;7.20;;
19189;SDS011;9727;50.200;19.038;2022-10-16T12:21:30;9.60;;;7.20;;
19189;SDS011;9727;50.200;19.038;2022-10-16T12:23:58;9.20;;;7.65;;
19189;SDS011;9727;50.200;19.038;2022-10-16T12:26:25;12.88;;;7.50;;
19189;SDS011;9727;50.200;19.038;2022-10-16T12:28:53;10.05;;;6.93;;
19189;SDS011;9727;50.200;19.038;2022-10-16T12:31:20;9.13;;;7.45;;
19189;SDS011;9727;50.200;19.038;2022-10-16T12:33:59;10.75;;;7.55;;
19189;SDS011;9727;50.200;19.038;2022-10-16T12:36:27;14.13;;;7.65;;
19189;SDS011;9727;50.200;19.038;2022-10-16T12:38:55;9.70;;;8.07;;
19189;SDS011;9727;50.200;19.038;2022-10-16T12:41:25;11.10;;;8.23;;
19189;SDS011;9727;50.200;19.038;2022-10-16T12:43:52;11.60;;;8.38;;
19189;SDS011;9727;50.200;19.038;2022-10-16T12:46:36;11.15;;;8.18;;
19189;SDS011;9727;50.200;19.038;2022-10-16T12:49:19;10.05;;;7.38;;
19189;SDS011;9727;50.200;19.038;2022-10-16T12:51:47;12.68;;;8.15;;
19189;SDS011;9727;50.200;19.038;2022-10-16T12:54:14;14.93;;;8.57;;
19189;SDS011;9727;50.200;19.038;2022-10-16T12:56:44;13.00;;;9.13;;
19189;SDS011;9727;50.200;19.038;2022-10-16T12:59:17;10.82;;;8.27;;
19189;SDS011;9727;50.200;19.038;2022-10-16T13:01:51;11.05;;;8.30;;
19189;SDS011;9727;50.200;19.038;2022-10-16T13:04:23;13.48;;;8.93;;
19189;SDS011;9727;50.200;19.038;2022-10-16T13:06:58;10.05;;;7.65;;
19189;SDS011;9727;50.200;19.038;2022-10-16T13:09:36;11.05;;;8.27;;
19189;SDS011;9727;50.200;19.038;2022-10-16T13:12:16;12.30;;;8.05;;
19189;SDS011;9727;50.200;19.038;2022-10-16T13:14:52;9.77;;;8.38;;
19189;SDS011;9727;50.200;19.038;2022-10-16T13:17:25;16.73;;;9.30;;
19189;SDS011;9727;50.200;19.038;2022-10-16T13:20:03;11.15;;;8.07;;
19189;SDS011;9727;50.200;19.038;2022-10-16T13:22:34;12.32;;;8.30;;
19189;SDS011;9727;50.200;19.038;2022-10-16T13:25:08;12.40;;;8.98;;
19189;SDS011;9727;50.200;19.038;2022-10-16T13:27:40;11.02;;;8.07;;
19189;SDS011;9727;50.200;19.038;2022-10-16T13:30:12;12.48;;;9.77;;
19189;SDS011;9727;50.200;19.038;2022-10-16T13:32:40;13.23;;;8.37;;
19189;SDS011;9727;50.200;19.038;2022-10-16T13:35:19;10.93;;;9.07;;
19189;SDS011;9727;50.200;19.038;2022-10-16T13:37:46;13.50;;;8.17;;
19189;SDS011;9727;50.200;19.038;2022-10-16T13:40:17;11.70;;;9.23;;
19189;SDS011;9727;50.200;19.038;2022-10-16T13:42:43;11.47;;;8.80;;
19189;SDS011;9727;50.200;19.038;2022-10-16T13:45:16;14.83;;;9.30;;
19189;SDS011;9727;50.200;19.038;2022-10-16T13:47:43;12.43;;;8.80;;
19189;SDS011;9727;50.200;19.038;2022-10-16T13:50:11;12.60;;;8.73;;
19189;SDS011;9727;50.200;19.038;2022-10-16T13:52:48;12.40;;;8.60;;
19189;SDS011;9727;50.200;19.038;2022-10-16T13:55:15;11.13;;;8.77;;
19189;SDS011;9727;50.200;19.038;2022-10-16T13:57:43;11.63;;;8.50;;
19189;SDS011;9727;50.200;19.038;2022-10-16T14:00:20;12.60;;;8.73;;
19189;SDS011;9727;50.200;19.038;2022-10-16T14:02:49;13.07;;;8.60;;
19189;SDS011;9727;50.200;19.038;2022-10-16T14:05:17;10.93;;;8.83;;
19189;SDS011;9727;50.200;19.038;2022-10-16T14:07:43;15.33;;;9.40;;
19189;SDS011;9727;50.200;19.038;2022-10-16T14:10:20;16.00;;;8.27;;
19189;SDS011;9727;50.200;19.038;2022-10-16T14:12:53;13.30;;;9.07;;
19189;SDS011;9727;50.200;19.038;2022-10-16T14:15:20;12.00;;;8.43;;
19189;SDS011;9727;50.200;19.038;2022-10-16T14:17:48;12.67;;;9.33;;
19189;SDS011;9727;50.200;19.038;2022-10-16T14:20:15;12.37;;;8.73;;
19189;SDS011;9727;50.200;19.038;2022-10-16T14:22:42;13.70;;;9.00;;
19189;SDS011;9727;50.200;19.038;2022-10-16T14:25:25;15.77;;;9.17;;
19189;SDS011;9727;50.200;19.038;2022-10-16T14:28:00;14.73;;;8.93;;
19189;SDS011;9727;50.200;19.038;2022-10-16T14:30:27;13.93;;;9.13;;
19189;SDS011;9727;50.200;19.038;2022-10-16T14:32:55;15.30;;;9.70;;
19189;SDS011;9727;50.200;19.038;2022-10-16T14:35:28;12.43;;;9.70;;
19189;SDS011;9727;50.200;19.038;2022-10-16T14:37:56;15.20;;;9.60;;
19189;SDS011;9727;50.200;19.038;2022-10-16T14:40:32;13.10;;;9.27;;